Time;durP1;ratioP1;P1;durP2;ratioP2;P2;SDS_P1;SDS_P2;PMS_P1;PMS_P2;Temp;Humidity;BMP_temperature;BMP_pressure;BME280_temperature;BME280_humidity;BME280_pressure;Samples;Min_cycle;Max_cycle;Signal;HPM_P1;HPM_P2
2022/07/23 00:01:29;;;;;;;14.90;8.43;;;15.10;99.90;;;;;;5063059;28;20204;-57
2022/07/23 00:03:59;;;;;;;14.83;8.87;;;15.00;99.90;;;;;;5072337;28;20239;-58
2022/07/23 00:06:27;;;;;;;10.77;9.17;;;15.00;99.90;;;;;;5072574;28;20706;-57
2022/07/23 00:08:56;;;;;;;11.07;9.57;;;15.00;99.90;;;;;;5072658;28;20196;-56
2022/07/23 00:11:25;;;;;;;12.17;9.83;;;14.90;99.90;;;;;;5072138;28;20223;-57
2022/07/23 00:13:54;;;;;;;16.50;10.60;;;14.90;99.90;;;;;;5062319;28;20196;-56
2022/07/23 00:16:23;;;;;;;13.87;9.80;;;14.90;99.90;;;;;;5066206;28;20200;-57
2022/07/23 00:18:52;;;;;;;14.73;11.13;;;14.90;99.90;;;;;;5072302;28;20216;-56
2022/07/23 00:21:21;;;;;;;14.27;10.27;;;14.80;99.90;;;;;;5072231;28;20227;-56
2022/07/23 00:23:50;;;;;;;16.07;10.33;;;14.80;99.90;;;;;;5072641;28;20227;-57
2022/07/23 00:26:18;;;;;;;12.50;9.87;;;14.80;99.90;;;;;;5069488;28;20279;-57
2022/07/23 00:28:46;;;;;;;13.73;10.53;;;14.80;99.90;;;;;;5067211;28;20275;-57
2022/07/23 00:31:15;;;;;;;12.63;10.10;;;14.70;99.90;;;;;;5069783;28;20235;-57
2022/07/23 00:33:43;;;;;;;17.33;11.30;;;14.70;99.90;;;;;;5071345;28;20262;-57
2022/07/23 00:36:12;;;;;;;15.07;11.00;;;14.70;99.90;;;;;;5070954;28;20200;-57
2022/07/23 00:38:42;;;;;;;17.17;12.00;;;14.70;99.90;;;;;;5066060;28;20596;-57
2022/07/23 00:41:11;;;;;;;16.97;11.53;;;14.70;99.90;;;;;;5060366;28;20199;-57
2022/07/23 00:43:39;;;;;;;14.63;11.10;;;14.70;99.90;;;;;;5067534;28;20283;-57
2022/07/23 00:46:08;;;;;;;16.20;10.80;;;14.70;99.90;;;;;;5072254;28;20677;-57
2022/07/23 00:48:37;;;;;;;16.27;9.60;;;14.60;99.90;;;;;;5070631;28;20223;-57
2022/07/23 00:51:05;;;;;;;12.70;8.90;;;14.60;99.90;;;;;;5071848;28;20705;-58
2022/07/23 00:53:34;;;;;;;10.77;8.53;;;14.50;99.90;;;;;;5070176;28;20201;-57
2022/07/23 00:56:05;;;;;;;16.13;8.60;;;14.50;99.90;;;;;;5072491;28;20203;-57
2022/07/23 00:58:38;;;;;;;12.23;8.83;;;14.40;99.90;;;;;;5069201;28;20192;-57
2022/07/23 01:01:09;;;;;;;12.27;8.80;;;14.40;99.90;;;;;;5074046;28;20207;-58
2022/07/23 01:03:40;;;;;;;13.93;9.07;;;14.30;99.90;;;;;;5075240;28;20263;-57
2022/07/23 01:06:09;;;;;;;13.30;9.13;;;14.30;99.90;;;;;;5072580;28;20203;-57
2022/07/23 01:08:38;;;;;;;13.20;9.90;;;14.20;99.90;;;;;;5071848;28;20699;-57
2022/07/23 01:11:09;;;;;;;15.10;9.83;;;14.20;99.90;;;;;;5075478;28;20208;-57
2022/07/23 01:13:42;;;;;;;12.70;10.30;;;14.20;99.90;;;;;;5064794;28;20196;-57
2022/07/23 01:16:10;;;;;;;14.83;10.30;;;14.20;99.90;;;;;;5059929;28;20200;-57
2022/07/23 01:18:39;;;;;;;12.50;9.80;;;14.20;99.90;;;;;;5072510;28;20790;-57
2022/07/23 01:21:09;;;;;;;13.73;9.87;;;14.20;99.90;;;;;;5098256;28;20299;-57
2022/07/23 01:23:39;;;;;;;18.67;10.07;;;14.20;99.90;;;;;;5061283;28;20203;-57
2022/07/23 01:26:07;;;;;;;16.13;9.63;;;14.10;99.90;;;;;;5075468;28;20188;-57
2022/07/23 01:28:38;;;;;;;17.03;9.93;;;14.10;99.90;;;;;;5072518;28;20652;-57
2022/07/23 01:31:07;;;;;;;15.77;10.43;;;14.10;99.90;;;;;;5075183;28;20192;-57
2022/07/23 01:33:35;;;;;;;17.97;10.50;;;14.10;99.90;;;;;;5075022;28;20188;-57
2022/07/23 01:36:04;;;;;;;14.83;10.60;;;14.00;99.90;;;;;;5068610;28;20200;-57
2022/07/23 01:38:33;;;;;;;14.67;9.77;;;14.00;99.90;;;;;;5074948;28;20631;-57
2022/07/23 01:41:02;;;;;;;16.10;10.70;;;14.00;99.90;;;;;;5058658;28;20738;-57
2022/07/23 01:43:33;;;;;;;15.73;9.80;;;13.90;99.90;;;;;;5073040;28;20199;-57
2022/07/23 01:46:01;;;;;;;18.30;10.67;;;13.90;99.90;;;;;;5075017;28;20192;-57
2022/07/23 01:48:30;;;;;;;15.73;10.33;;;13.80;99.90;;;;;;5074645;28;20210;-57
2022/07/23 01:50:59;;;;;;;13.23;10.43;;;13.80;99.90;;;;;;5070841;28;20199;-57
2022/07/23 01:53:27;;;;;;;12.33;9.97;;;13.80;99.90;;;;;;5070501;28;20522;-57
2022/07/23 01:55:56;;;;;;;16.00;11.13;;;13.80;99.90;;;;;;5074432;28;20281;-58
2022/07/23 01:58:27;;;;;;;17.00;11.27;;;13.80;99.90;;;;;;5067730;28;20193;-57
2022/07/23 02:00:56;;;;;;;13.73;11.50;;;13.80;99.90;;;;;;5068262;28;20216;-57
2022/07/23 02:03:24;;;;;;;14.33;11.60;;;13.80;99.90;;;;;;5080608;28;20202;-57
2022/07/23 02:05:53;;;;;;;18.70;12.80;;;13.80;99.90;;;;;;5075391;28;20250;-57
2022/07/23 02:08:22;;;;;;;18.40;11.37;;;13.80;99.90;;;;;;5072334;28;20235;-57
2022/07/23 02:10:51;;;;;;;14.50;11.50;;;13.80;99.90;;;;;;5069414;28;20279;-56
2022/07/23 02:13:19;;;;;;;14.67;11.37;;;13.80;99.90;;;;;;5074369;28;20271;-56
2022/07/23 02:15:51;;;;;;;20.37;11.47;;;13.80;99.90;;;;;;5068162;28;20222;-57
2022/07/23 02:18:20;;;;;;;13.27;11.07;;;13.70;99.90;;;;;;5089673;28;20275;-57
2022/07/23 02:20:48;;;;;;;15.07;11.07;;;13.70;99.90;;;;;;5073842;28;20213;-57
2022/07/23 02:23:17;;;;;;;14.50;10.90;;;13.60;99.90;;;;;;5074043;28;20283;-57
2022/07/23 02:25:45;;;;;;;18.57;12.23;;;13.60;99.90;;;;;;5074017;28;20184;-57
2022/07/23 02:28:14;;;;;;;14.77;11.70;;;13.50;99.90;;;;;;5069350;28;20192;-57
2022/07/23 02:30:42;;;;;;;17.93;12.77;;;13.50;99.90;;;;;;5070656;28;20521;-57
2022/07/23 02:33:14;;;;;;;16.00;12.73;;;13.60;99.90;;;;;;5072739;28;20193;-57
2022/07/23 02:35:42;;;;;;;20.13;13.90;;;13.50;99.90;;;;;;5073979;28;20659;-56
2022/07/23 02:38:13;;;;;;;19.23;13.10;;;13.50;99.90;;;;;;5074041;28;20648;-57
2022/07/23 02:40:42;;;;;;;17.90;12.53;;;13.50;99.90;;;;;;5070740;28;20240;-57
2022/07/23 02:43:10;;;;;;;20.77;13.17;;;13.50;99.90;;;;;;5057605;28;20261;-57
2022/07/23 02:45:38;;;;;;;18.63;13.07;;;13.40;99.90;;;;;;5073216;28;20682;-57
2022/07/23 02:48:07;;;;;;;23.33;14.57;;;13.40;99.90;;;;;;5073619;28;20291;-57
2022/07/23 02:50:37;;;;;;;15.83;13.43;;;13.40;99.90;;;;;;5057740;28;20200;-57
2022/07/23 02:53:05;;;;;;;20.90;13.47;;;13.50;99.90;;;;;;5064589;28;20197;-57
2022/07/23 02:55:35;;;;;;;20.73;14.50;;;13.40;99.90;;;;;;5059999;28;20205;-57
2022/07/23 02:58:03;;;;;;;26.37;14.43;;;13.40;99.90;;;;;;5073729;28;20241;-57
2022/07/23 03:00:31;;;;;;;25.27;13.57;;;13.40;99.90;;;;;;5073485;28;20212;-57
2022/07/23 03:03:01;;;;;;;20.80;13.07;;;13.40;99.90;;;;;;5101286;28;20216;-57
2022/07/23 03:05:29;;;;;;;19.53;12.20;;;13.40;99.90;;;;;;5072051;28;20226;-57
2022/07/23 03:07:59;;;;;;;18.40;11.93;;;13.30;99.90;;;;;;5072813;28;20227;-57
2022/07/23 03:10:28;;;;;;;14.93;11.53;;;13.20;99.90;;;;;;5073125;28;20246;-57
2022/07/23 03:12:56;;;;;;;17.60;11.87;;;13.10;99.90;;;;;;5071871;28;20212;-57
2022/07/23 03:15:24;;;;;;;18.67;13.90;;;13.10;99.90;;;;;;5062206;28;20208;-57
2022/07/23 03:17:53;;;;;;;22.73;14.47;;;13.10;99.90;;;;;;5073105;28;20201;-57
2022/07/23 03:20:24;;;;;;;24.13;14.50;;;13.20;99.90;;;;;;5073085;28;20205;-56
2022/07/23 03:22:52;;;;;;;20.13;14.03;;;13.20;99.90;;;;;;5072942;28;20230;-57
2022/07/23 03:25:23;;;;;;;23.37;16.60;;;13.20;99.90;;;;;;5072704;28;20547;-57
2022/07/23 03:27:51;;;;;;;27.67;17.40;;;13.10;99.90;;;;;;5065142;28;20297;-57
2022/07/23 03:30:20;;;;;;;25.93;16.13;;;13.20;99.90;;;;;;5068259;28;20620;-57
2022/07/23 03:32:49;;;;;;;23.17;13.23;;;13.20;99.90;;;;;;5072913;28;20866;-56
2022/07/23 03:35:17;;;;;;;22.90;14.80;;;13.20;99.90;;;;;;5072155;28;20544;-57
2022/07/23 03:37:46;;;;;;;21.90;14.87;;;13.20;99.90;;;;;;5062133;28;20193;-57
2022/07/23 03:40:15;;;;;;;26.80;15.83;;;13.10;99.90;;;;;;5069680;28;20199;-57
2022/07/23 03:42:45;;;;;;;28.57;14.90;;;13.10;99.90;;;;;;5072807;28;20220;-56
2022/07/23 03:45:14;;;;;;;25.10;16.17;;;13.10;99.90;;;;;;5063031;28;20197;-57
2022/07/23 03:47:43;;;;;;;25.07;15.73;;;13.10;99.90;;;;;;5071710;28;20287;-56
2022/07/23 03:50:11;;;;;;;25.97;15.37;;;13.10;99.90;;;;;;5072739;28;20204;-57
2022/07/23 03:52:40;;;;;;;20.23;14.80;;;13.10;99.90;;;;;;5072698;28;20223;-57
2022/07/23 03:55:09;;;;;;;16.90;13.73;;;13.10;99.90;;;;;;5072749;28;20188;-57
2022/07/23 03:57:37;;;;;;;17.47;13.70;;;13.10;99.90;;;;;;5062834;28;20196;-56
2022/07/23 04:00:09;;;;;;;16.50;12.97;;;13.00;99.90;;;;;;5072519;28;20234;-57
2022/07/23 04:02:39;;;;;;;21.87;13.43;;;13.00;99.90;;;;;;5072816;28;20200;-57
2022/07/23 04:05:44;;;;;;;17.87;12.53;;;13.00;99.90;;;;;;5087857;28;20198;-57
2022/07/23 04:08:16;;;;;;;20.03;14.10;;;13.00;99.90;;;;;;5056953;28;20228;-56
2022/07/23 04:10:44;;;;;;;24.30;14.73;;;13.00;99.90;;;;;;5086208;28;20666;-56
2022/07/23 04:13:12;;;;;;;20.40;13.83;;;13.10;99.90;;;;;;5070038;28;20207;-57
2022/07/23 04:15:42;;;;;;;19.40;14.57;;;13.10;99.90;;;;;;5069382;28;20731;-57
2022/07/23 04:18:11;;;;;;;18.30;13.67;;;13.10;99.90;;;;;;5069104;28;20202;-56
2022/07/23 04:20:42;;;;;;;21.30;14.57;;;13.10;99.90;;;;;;5064370;28;20196;-57
2022/07/23 04:23:12;;;;;;;21.03;14.13;;;13.10;99.90;;;;;;5072821;28;20302;-57
2022/07/23 04:25:40;;;;;;;22.87;14.93;;;13.10;99.90;;;;;;5069253;28;20231;-57
2022/07/23 04:28:10;;;;;;;21.03;14.17;;;13.10;99.90;;;;;;5070854;28;20250;-57
2022/07/23 04:30:39;;;;;;;18.87;14.57;;;13.10;99.90;;;;;;5064530;28;20656;-57
2022/07/23 04:33:09;;;;;;;23.80;14.37;;;13.10;99.90;;;;;;5066213;28;20271;-57
2022/07/23 04:35:37;;;;;;;22.27;14.13;;;13.10;99.90;;;;;;5075977;28;20279;-57
2022/07/23 04:38:06;;;;;;;21.73;15.20;;;13.20;99.90;;;;;;5074994;28;20214;-57
2022/07/23 04:40:35;;;;;;;23.03;15.70;;;13.20;99.90;;;;;;5058948;28;20204;-57
2022/07/23 04:43:04;;;;;;;20.97;14.43;;;13.30;99.90;;;;;;5076223;28;20294;-57
2022/07/23 04:45:33;;;;;;;24.67;14.23;;;13.30;99.90;;;;;;5074267;28;20275;-57
2022/07/23 04:48:02;;;;;;;23.03;15.23;;;13.40;99.90;;;;;;5076227;28;20250;-57
2022/07/23 04:50:32;;;;;;;21.73;14.90;;;13.50;99.90;;;;;;5076029;28;20200;-57
2022/07/23 04:53:02;;;;;;;24.60;15.37;;;13.70;99.90;;;;;;5076291;28;20210;-57
2022/07/23 04:55:31;;;;;;;26.27;16.80;;;13.90;99.90;;;;;;5076002;28;20192;-57
2022/07/23 04:57:59;;;;;;;25.73;17.13;;;14.10;99.90;;;;;;5064843;28;20627;-57
2022/07/23 05:01:08;;;;;;;26.10;18.30;;;14.30;99.90;;;;;;5070535;28;20238;-57
2022/07/23 05:03:37;;;;;;;28.87;17.23;;;14.40;99.90;;;;;;5071121;28;20220;-57
2022/07/23 05:06:06;;;;;;;23.13;15.70;;;14.60;99.90;;;;;;5075523;28;20601;-57
2022/07/23 05:08:35;;;;;;;23.37;16.10;;;14.70;99.90;;;;;;5074379;28;20686;-57
2022/07/23 05:11:05;;;;;;;22.47;15.40;;;14.70;99.90;;;;;;5075336;28;20722;-57
2022/07/23 05:13:34;;;;;;;22.10;14.80;;;14.80;99.90;;;;;;5074503;28;20224;-57
2022/07/23 05:16:02;;;;;;;24.47;16.07;;;14.80;99.90;;;;;;5066837;28;20197;-57
2022/07/23 05:18:30;;;;;;;20.73;15.27;;;14.70;99.90;;;;;;5055327;28;20251;-57
2022/07/23 05:20:59;;;;;;;21.40;14.87;;;14.80;99.90;;;;;;5086075;28;20532;-57
2022/07/23 05:23:28;;;;;;;20.53;14.37;;;14.70;99.90;;;;;;5075754;28;20191;-57
2022/07/23 05:25:57;;;;;;;19.97;14.83;;;14.70;99.90;;;;;;5066362;28;20206;-57
2022/07/23 05:28:25;;;;;;;23.57;15.53;;;14.70;99.90;;;;;;5074112;28;20272;-57
2022/07/23 05:30:53;;;;;;;22.40;15.00;;;14.80;99.90;;;;;;5074783;28;20277;-57
2022/07/23 05:33:22;;;;;;;19.70;14.33;;;14.80;99.90;;;;;;5071702;28;20571;-55
2022/07/23 05:35:50;;;;;;;21.53;14.17;;;14.80;99.90;;;;;;5074952;28;20203;-57
2022/07/23 05:38:18;;;;;;;19.30;13.50;;;14.90;99.90;;;;;;5075418;28;20529;-56
2022/07/23 05:40:48;;;;;;;21.87;14.67;;;15.10;99.90;;;;;;5071648;28;20709;-57
2022/07/23 05:43:17;;;;;;;21.87;14.73;;;15.20;99.90;;;;;;5056478;28;20298;-57
2022/07/23 05:45:45;;;;;;;17.00;14.30;;;15.40;99.90;;;;;;5055012;28;20363;-57
2022/07/23 05:48:13;;;;;;;21.07;13.90;;;15.60;99.90;;;;;;5072807;28;20274;-57
2022/07/23 05:50:42;;;;;;;18.53;12.87;;;15.90;99.90;;;;;;5071363;28;20640;-57
2022/07/23 05:53:10;;;;;;;17.50;12.17;;;16.20;99.90;;;;;;5074538;28;20282;-58
2022/07/23 05:55:41;;;;;;;18.30;12.77;;;16.40;99.90;;;;;;5074515;28;20194;-57
2022/07/23 05:58:10;;;;;;;13.77;11.57;;;16.60;99.90;;;;;;5064807;28;20669;-57
2022/07/23 06:00:39;;;;;;;13.80;11.07;;;16.60;99.90;;;;;;5058620;28;20196;-57
2022/07/23 06:03:07;;;;;;;13.50;10.63;;;16.70;99.90;;;;;;5074444;28;20256;-57
2022/07/23 06:05:38;;;;;;;15.03;11.13;;;16.70;99.90;;;;;;5074534;28;20202;-58
2022/07/23 06:08:06;;;;;;;16.33;11.57;;;16.70;99.90;;;;;;5071368;28;20314;-57
2022/07/23 06:10:35;;;;;;;12.47;11.17;;;16.60;99.90;;;;;;5074528;28;20606;-57
2022/07/23 06:13:03;;;;;;;18.80;12.67;;;16.60;99.90;;;;;;5061264;28;20275;-58
2022/07/23 06:15:33;;;;;;;14.80;12.47;;;16.80;99.90;;;;;;5069392;28;20265;-58
2022/07/23 06:18:02;;;;;;;17.50;12.03;;;17.10;99.90;;;;;;5074081;28;20200;-56
2022/07/23 06:20:30;;;;;;;11.93;10.73;;;17.40;99.90;;;;;;5058832;28;20601;-57
2022/07/23 06:22:59;;;;;;;17.33;11.50;;;17.70;99.90;;;;;;5074209;28;20239;-57
2022/07/23 06:25:27;;;;;;;13.17;11.63;;;18.00;99.90;;;;;;5054613;28;20197;-57
2022/07/23 06:27:55;;;;;;;16.87;11.00;;;18.40;99.90;;;;;;5057620;28;20207;-57
2022/07/23 06:30:26;;;;;;;11.77;10.40;;;18.70;99.90;;;;;;5070128;28;20270;-57
2022/07/23 06:32:56;;;;;;;12.93;9.93;;;19.10;99.90;;;;;;5062327;28;20664;-57
2022/07/23 06:35:25;;;;;;;12.53;9.83;;;19.30;99.90;;;;;;5074243;28;20200;-58
2022/07/23 06:37:53;;;;;;;10.17;9.10;;;19.30;99.90;;;;;;5071099;28;20189;-58
2022/07/23 06:40:22;;;;;;;13.83;9.70;;;19.20;99.90;;;;;;5066279;28;20183;-57
2022/07/23 06:42:51;;;;;;;10.73;9.67;;;19.30;99.90;;;;;;5073037;28;20216;-57
2022/07/23 06:45:19;;;;;;;10.83;8.80;;;19.50;99.90;;;;;;5074128;28;20199;-57
2022/07/23 06:47:48;;;;;;;11.27;10.03;;;19.70;99.90;;;;;;5073150;28;20220;-58
2022/07/23 06:50:17;;;;;;;12.80;10.50;;;20.00;99.90;;;;;;5064679;28;20267;-58
2022/07/23 06:52:45;;;;;;;13.77;9.33;;;20.20;99.90;;;;;;5060179;28;20304;-57
2022/07/23 06:55:14;;;;;;;10.57;9.57;;;20.40;99.90;;;;;;5092320;28;20276;-58
2022/07/23 06:57:43;;;;;;;12.63;9.03;;;20.70;99.90;;;;;;5067573;28;20193;-57
2022/07/23 07:00:12;;;;;;;10.47;9.10;;;20.90;99.90;;;;;;5073281;28;20193;-58
2022/07/23 07:02:40;;;;;;;12.17;9.70;;;21.10;99.90;;;;;;5068063;28;20212;-58
2022/07/23 07:05:09;;;;;;;11.20;9.97;;;21.40;99.90;;;;;;5072172;28;20659;-58
2022/07/23 07:07:38;;;;;;;12.57;10.00;;;21.50;99.90;;;;;;5073189;28;20313;-58
2022/07/23 07:10:08;;;;;;;10.40;9.40;;;21.70;99.90;;;;;;5071053;28;20192;-58
2022/07/23 07:12:43;;;;;;;15.23;9.50;;;21.90;99.90;;;;;;5066367;28;20246;-58
2022/07/23 07:15:12;;;;;;;10.83;8.83;;;21.90;99.90;;;;;;5073268;28;20195;-58
2022/07/23 07:17:42;;;;;;;11.07;8.33;;;21.90;99.90;;;;;;5061799;28;20203;-58
2022/07/23 07:20:11;;;;;;;11.77;9.40;;;22.20;99.90;;;;;;5093518;28;20383;-58
2022/07/23 07:22:41;;;;;;;14.33;9.70;;;22.50;99.90;;;;;;5069024;28;20281;-58
2022/07/23 07:25:09;;;;;;;9.65;8.65;;;22.70;99.90;;;;;;5054513;28;20276;-57
2022/07/23 07:27:38;;;;;;;11.13;8.50;;;22.70;99.90;;;;;;5072141;28;20196;-58
2022/07/23 07:30:07;;;;;;;11.80;8.83;;;22.80;99.90;;;;;;5068954;28;20216;-58
2022/07/23 07:32:36;;;;;;;10.18;8.85;;;23.00;99.90;;;;;;5071594;28;20190;-58
2022/07/23 07:35:25;;;;;;;10.30;8.80;;;23.30;99.90;;;;;;5064027;28;20194;-58
2022/07/23 07:37:54;;;;;;;10.07;8.43;;;23.10;99.90;;;;;;5068171;28;20221;-58
2022/07/23 07:40:23;;;;;;;10.52;8.55;;;22.70;99.90;;;;;;5070464;28;20225;-58
2022/07/23 07:42:56;;;;;;;8.05;7.00;;;22.80;99.90;;;;;;5071899;28;20304;-58
2022/07/23 07:45:26;;;;;;;10.23;8.20;;;23.20;99.90;;;;;;5072894;28;20670;-58
2022/07/23 07:47:54;;;;;;;11.20;7.80;;;23.80;99.90;;;;;;5071968;28;20186;-58
2022/07/23 07:50:25;;;;;;;9.70;7.28;;;24.00;99.90;;;;;;5067490;28;20253;-57
2022/07/23 07:52:55;;;;;;;9.07;7.60;;;24.50;99.90;;;;;;5067666;28;20269;-58
2022/07/23 07:55:24;;;;;;;9.65;7.47;;;24.80;99.90;;;;;;5070282;28;20245;-58
2022/07/23 07:57:53;;;;;;;9.65;6.75;;;24.90;99.90;;;;;;5071697;28;20258;-57
2022/07/23 08:00:21;;;;;;;8.02;7.05;;;25.10;99.90;;;;;;5071236;28;20623;-58
2022/07/23 08:02:53;;;;;;;7.80;7.03;;;25.50;99.90;;;;;;5066480;28;20299;-58
2022/07/23 08:05:22;;;;;;;7.15;6.55;;;25.60;99.90;;;;;;5069631;28;20184;-58
2022/07/23 08:07:57;;;;;;;9.77;6.78;;;25.90;99.90;;;;;;5076887;28;20243;-58
2022/07/23 08:10:27;;;;;;;10.52;6.30;;;26.40;99.90;;;;;;5070594;28;20226;-57
2022/07/23 08:12:57;;;;;;;7.05;6.35;;;26.40;99.90;;;;;;5072582;28;20290;-55
2022/07/23 08:15:26;;;;;;;8.23;6.45;;;26.70;99.90;;;;;;5098832;28;20215;-56
2022/07/23 08:17:55;;;;;;;5.35;4.82;;;26.90;99.90;;;;;;5066938;28;20283;-56
2022/07/23 08:20:24;;;;;;;5.85;5.20;;;27.20;99.90;;;;;;5069220;28;20555;-56
2022/07/23 08:22:54;;;;;;;6.15;5.65;;;27.40;99.90;;;;;;5074012;28;20200;-56
2022/07/23 08:25:26;;;;;;;5.40;5.03;;;27.10;99.90;;;;;;5074057;28;20205;-56
2022/07/23 08:27:55;;;;;;;6.68;6.05;;;28.00;99.90;;;;;;5071064;28;20279;-56
2022/07/23 08:30:24;;;;;;;5.30;4.93;;;28.50;99.90;;;;;;5076158;28;20536;-56
2022/07/23 08:32:54;;;;;;;6.38;5.55;;;28.10;99.90;;;;;;5097929;28;20290;-56
2022/07/23 08:35:28;;;;;;;6.93;6.03;;;27.70;99.90;;;;;;5076374;28;20284;-55
2022/07/23 08:37:57;;;;;;;6.22;5.68;;;27.30;99.90;;;;;;5076598;28;20196;-56
2022/07/23 08:40:29;;;;;;;6.18;5.57;;;26.80;99.90;;;;;;5078148;28;20553;-56
2022/07/23 08:42:58;;;;;;;18.65;5.53;;;27.10;99.90;;;;;;5064594;28;20860;-57
2022/07/23 08:45:27;;;;;;;7.07;5.10;;;27.60;99.90;;;;;;5063600;28;20194;-56
2022/07/23 08:47:58;;;;;;;5.65;5.15;;;28.10;99.90;;;;;;5076080;28;20204;-56
2022/07/23 08:50:30;;;;;;;5.88;5.43;;;28.50;99.90;;;;;;5068886;28;20183;-56
2022/07/23 08:53:02;;;;;;;5.10;4.57;;;28.20;99.90;;;;;;5075319;28;20246;-56
2022/07/23 08:55:32;;;;;;;5.65;4.00;;;28.30;99.90;;;;;;5074994;28;20200;-55
2022/07/23 08:58:00;;;;;;;5.05;3.83;;;28.00;99.90;;;;;;5075503;28;20670;-55
2022/07/23 09:00:29;;;;;;;4.60;3.60;;;27.90;99.90;;;;;;5075369;28;20615;-56
2022/07/23 09:02:57;;;;;;;3.70;3.50;;;28.00;99.90;;;;;;5073963;28;20192;-56
2022/07/23 09:05:26;;;;;;;4.20;3.90;;;28.90;99.90;;;;;;5075626;28;20539;-56
2022/07/23 09:08:09;;;;;;;4.47;4.00;;;29.10;99.90;;;;;;5075400;28;20699;-56
2022/07/23 09:10:50;;;;;;;4.95;4.15;;;29.00;99.90;;;;;;5089496;28;20268;-56
2022/07/23 09:13:31;;;;;;;5.03;4.20;;;28.80;99.90;;;;;;5075579;28;20717;-56
2022/07/23 09:16:04;;;;;;;3.55;3.25;;;28.20;99.90;;;;;;5074973;28;20597;-56
2022/07/23 09:18:43;;;;;;;4.00;3.65;;;27.80;99.90;;;;;;5069366;28;20723;-56
2022/07/23 09:21:31;;;;;;;4.20;3.90;;;27.80;99.90;;;;;;5075806;28;20196;-56
2022/07/23 09:24:01;;;;;;;3.92;3.70;;;28.10;99.90;;;;;;5068102;28;20223;-57
2022/07/23 09:26:34;;;;;;;5.07;4.00;;;28.40;99.90;;;;;;5068874;28;20216;-55
2022/07/23 09:29:08;;;;;;;3.85;3.55;;;28.60;99.90;;;;;;5056544;28;20664;-55
2022/07/23 09:31:46;;;;;;;4.22;3.65;;;29.00;99.90;;;;;;5064320;28;20271;-55
2022/07/23 09:34:19;;;;;;;4.00;3.60;;;29.20;99.90;;;;;;5071488;28;20294;-55
2022/07/23 09:36:53;;;;;;;4.82;4.10;;;29.30;99.90;;;;;;5069031;28;20692;-56
2022/07/23 09:39:30;;;;;;;5.00;3.60;;;29.70;99.90;;;;;;5073079;28;20255;-56
2022/07/23 09:42:14;;;;;;;3.92;3.63;;;30.20;99.90;;;;;;5092681;28;20621;-56
2022/07/23 09:44:43;;;;;;;5.38;4.03;;;30.40;99.90;;;;;;5067284;28;20206;-56
2022/07/23 09:47:11;;;;;;;4.50;4.10;;;30.20;99.90;;;;;;5072158;28;20286;-56
2022/07/23 09:49:40;;;;;;;3.88;3.35;;;29.50;99.90;;;;;;5076613;28;20278;-56
2022/07/23 09:52:08;;;;;;;3.53;3.30;;;29.20;99.90;;;;;;5065869;28;20277;-56
2022/07/23 09:54:40;;;;;;;5.03;3.83;;;29.40;99.90;;;;;;5065942;28;20196;-56
2022/07/23 09:57:14;;;;;;;6.60;4.07;;;30.20;99.90;;;;;;5070351;28;20272;-56
2022/07/23 09:59:46;;;;;;;3.25;3.03;;;31.00;99.90;;;;;;5071907;28;20192;-56
2022/07/23 10:02:15;;;;;;;3.78;3.35;;;31.40;99.90;;;;;;5068318;28;20200;-56
2022/07/23 10:05:22;;;;;;;3.38;3.17;;;31.40;99.90;;;;;;5064995;28;20296;-56
2022/07/23 10:08:02;;;;;;;6.78;3.28;;;31.10;99.90;;;;;;5063794;28;20235;-57
2022/07/23 10:10:32;;;;;;;2.80;2.60;;;31.30;99.90;;;;;;5071045;28;20192;-57
2022/07/23 10:15:50;;;;;;;4.10;3.60;;;32.10;99.70;;;;;;5059695;28;20818;-58
2022/07/23 10:18:19;;;;;;;3.70;3.22;;;31.80;99.90;;;;;;5070147;28;20200;-57
2022/07/23 10:20:49;;;;;;;3.20;3.00;;;31.60;99.40;;;;;;5072805;28;20257;-58
2022/07/23 10:23:40;;;;;;;2.65;2.55;;;31.80;99.90;;;;;;5072537;28;20575;-57
2022/07/23 10:26:19;;;;;;;4.10;3.53;;;32.10;99.20;;;;;;5066249;28;20189;-57
2022/07/23 10:29:07;;;;;;;2.88;2.58;;;31.90;97.20;;;;;;5067798;28;20282;-57
2022/07/23 10:31:43;;;;;;;3.20;2.40;;;31.60;98.80;;;;;;5071805;28;20326;-58
2022/07/23 10:34:36;;;;;;;3.17;2.97;;;32.00;99.50;;;;;;5067627;28;20214;-57
2022/07/23 10:37:15;;;;;;;3.08;2.88;;;31.60;96.90;;;;;;5067842;28;20303;-58
2022/07/23 10:39:49;;;;;;;2.85;2.65;;;31.40;98.10;;;;;;5069337;28;20203;-58
2022/07/23 10:42:18;;;;;;;3.13;2.95;;;31.90;99.30;;;;;;5071580;28;20196;-57
2022/07/23 10:44:49;;;;;;;3.97;2.67;;;31.90;96.40;;;;;;5072299;28;20294;-57
2022/07/23 10:47:41;;;;;;;2.80;2.60;;;31.70;96.90;;;;;;5072268;28;20200;-57
2022/07/23 10:50:23;;;;;;;2.80;2.60;;;31.90;98.60;;;;;;5071207;28;20585;-57
2022/07/23 10:53:15;;;;;;;2.67;2.58;;;32.40;97.50;;;;;;5065740;28;20282;-57
2022/07/23 10:55:52;;;;;;;3.80;2.80;;;32.70;97.40;;;;;;5095027;28;20192;-58
2022/07/23 10:58:48;;;;;;;3.08;2.88;;;32.90;96.80;;;;;;5061206;28;20231;-58
2022/07/23 11:01:38;;;;;;;3.72;3.00;;;32.40;95.90;;;;;;5071305;28;20230;-58
2022/07/23 11:04:07;;;;;;;3.47;3.17;;;32.20;98.20;;;;;;5070458;28;20250;-57
2022/07/23 11:07:11;;;;;;;6.95;2.90;;;32.30;95.60;;;;;;5069060;28;20315;-57
2022/07/23 11:09:42;;;;;;;3.20;3.00;;;32.30;96.60;;;;;;5054205;28;20204;-57
2022/07/23 11:12:36;;;;;;;3.13;2.85;;;32.10;96.30;;;;;;5067673;28;20271;-57
2022/07/23 11:15:07;;;;;;;3.25;3.05;;;31.60;96.90;;;;;;5062346;28;20223;-58
2022/07/23 11:17:40;;;;;;;2.75;2.60;;;31.10;97.70;;;;;;5063214;28;20204;-57
2022/07/23 11:20:24;;;;;;;2.60;2.40;;;31.00;98.00;;;;;;5068243;28;20205;-57
2022/07/23 11:22:55;;;;;;;3.58;2.85;;;31.30;97.10;;;;;;5093592;28;20196;-57
2022/07/23 11:25:34;;;;;;;2.65;2.55;;;31.70;97.70;;;;;;5070747;28;20556;-58
2022/07/23 11:28:14;;;;;;;3.78;3.47;;;31.90;97.80;;;;;;5056624;28;20194;-57
2022/07/23 11:30:44;;;;;;;3.83;3.03;;;31.30;96.30;;;;;;5071566;28;20266;-56
2022/07/23 11:33:23;;;;;;;2.95;2.85;;;31.00;96.90;;;;;;5067922;28;20271;-57
2022/07/23 11:36:03;;;;;;;3.55;3.35;;;30.80;98.00;;;;;;5047392;28;20608;-57
2022/07/23 11:38:33;;;;;;;3.10;2.90;;;30.50;97.30;;;;;;5070727;28;20217;-57
2022/07/23 11:41:01;;;;;;;3.45;3.10;;;30.10;97.90;;;;;;5069466;28;20279;-57
2022/07/23 11:43:30;;;;;;;5.25;3.10;;;30.10;98.20;;;;;;5061219;28;20201;-58
2022/07/23 11:46:00;;;;;;;3.10;2.90;;;30.20;98.30;;;;;;5065325;28;20216;-57
2022/07/23 11:48:32;;;;;;;3.03;2.92;;;30.20;98.40;;;;;;5060765;28;20649;-57
2022/07/23 11:51:08;;;;;;;2.55;2.40;;;30.10;99.30;;;;;;5070960;28;20223;-57
2022/07/23 11:53:37;;;;;;;3.05;2.50;;;30.30;98.90;;;;;;5063072;28;20188;-57
2022/07/23 11:56:07;;;;;;;4.35;2.95;;;30.50;99.60;;;;;;5068119;28;20194;-57
2022/07/23 11:58:35;;;;;;;3.83;3.30;;;30.10;96.70;;;;;;5065408;28;20205;-57
2022/07/23 12:01:04;;;;;;;3.25;2.97;;;30.00;96.80;;;;;;5052362;28;20613;-57
2022/07/23 12:03:34;;;;;;;3.10;2.90;;;30.10;98.50;;;;;;5065264;28;20290;-57
2022/07/23 12:06:03;;;;;;;3.70;3.40;;;30.20;96.70;;;;;;5064193;28;20207;-57
2022/07/23 12:08:31;;;;;;;5.93;2.80;;;29.50;96.30;;;;;;5059242;28;20314;-57
2022/07/23 12:11:00;;;;;;;7.53;2.65;;;28.90;98.20;;;;;;5062263;28;20200;-57
2022/07/23 12:13:28;;;;;;;3.03;2.83;;;29.00;99.30;;;;;;5069894;28;20205;-57
2022/07/23 12:15:59;;;;;;;2.78;2.58;;;28.90;97.80;;;;;;5070121;28;20228;-57
2022/07/23 12:18:28;;;;;;;3.22;2.90;;;29.00;97.80;;;;;;5070743;28;20228;-57
2022/07/23 12:21:03;;;;;;;2.78;2.58;;;28.60;97.40;;;;;;5075051;28;20195;-57
2022/07/23 12:23:32;;;;;;;2.60;2.42;;;28.60;99.40;;;;;;5067164;28;20273;-57
2022/07/23 12:26:03;;;;;;;2.67;2.53;;;28.80;99.90;;;;;;5068315;28;20675;-56
2022/07/23 12:28:33;;;;;;;2.50;2.30;;;28.70;99.80;;;;;;5069069;28;20201;-57
2022/07/23 12:31:02;;;;;;;2.88;2.67;;;28.70;98.70;;;;;;5071321;28;20201;-56
2022/07/23 12:33:33;;;;;;;2.70;2.50;;;28.70;99.00;;;;;;5068739;28;21143;-57
2022/07/23 12:36:05;;;;;;;2.70;2.53;;;28.60;99.70;;;;;;5069969;28;20186;-56
2022/07/23 12:38:39;;;;;;;3.10;2.90;;;28.60;99.90;;;;;;5069296;28;20295;-57
2022/07/23 12:41:08;;;;;;;3.30;3.10;;;28.50;99.90;;;;;;5067274;28;20277;-56
2022/07/23 12:43:39;;;;;;;4.30;3.10;;;28.40;99.60;;;;;;5068190;28;20181;-57
2022/07/23 12:46:10;;;;;;;4.60;3.17;;;28.20;99.90;;;;;;5070236;28;20216;-57
2022/07/23 12:48:40;;;;;;;2.60;2.43;;;28.30;99.90;;;;;;5064197;28;20725;-56
2022/07/23 12:51:15;;;;;;;6.20;2.90;;;28.40;99.90;;;;;;5053883;28;20648;-57
2022/07/23 12:53:53;;;;;;;3.00;2.63;;;28.30;99.90;;;;;;5073720;28;20575;-56
2022/07/23 12:56:27;;;;;;;2.93;2.63;;;28.40;99.90;;;;;;5061217;28;20193;-56
2022/07/23 12:59:06;;;;;;;2.88;2.70;;;28.50;99.90;;;;;;5068404;28;20281;-56